sensor_id;sensor_type;location;lat;lon;timestamp;P1;durP1;ratioP1;P2;durP2;ratioP2
32427;SDS011;18882;50.952;4.366;2023-12-04T00:01:16;10.68;;;4.13;;
32427;SDS011;18882;50.952;4.366;2023-12-04T00:03:42;9.32;;;4.03;;
32427;SDS011;18882;50.952;4.366;2023-12-04T00:06:09;6.18;;;3.25;;
32427;SDS011;18882;50.952;4.366;2023-12-04T00:08:36;9.73;;;4.10;;
32427;SDS011;18882;50.952;4.366;2023-12-04T00:11:02;10.88;;;4.07;;
32427;SDS011;18882;50.952;4.366;2023-12-04T00:13:29;11.32;;;4.47;;
32427;SDS011;18882;50.952;4.366;2023-12-04T00:15:54;13.10;;;4.75;;
32427;SDS011;18882;50.952;4.366;2023-12-04T00:18:20;8.48;;;4.10;;
32427;SDS011;18882;50.952;4.366;2023-12-04T00:20:46;9.05;;;4.00;;
32427;SDS011;18882;50.952;4.366;2023-12-04T00:23:11;12.90;;;4.53;;
32427;SDS011;18882;50.952;4.366;2023-12-04T00:25:37;12.45;;;4.47;;
32427;SDS011;18882;50.952;4.366;2023-12-04T00:28:03;13.90;;;4.68;;
32427;SDS011;18882;50.952;4.366;2023-12-04T00:30:28;10.20;;;4.05;;
32427;SDS011;18882;50.952;4.366;2023-12-04T00:32:54;9.95;;;3.67;;
32427;SDS011;18882;50.952;4.366;2023-12-04T00:35:20;9.50;;;3.97;;
32427;SDS011;18882;50.952;4.366;2023-12-04T00:37:46;8.45;;;3.95;;
32427;SDS011;18882;50.952;4.366;2023-12-04T00:40:11;11.07;;;4.00;;
32427;SDS011;18882;50.952;4.366;2023-12-04T00:42:37;10.85;;;3.65;;
32427;SDS011;18882;50.952;4.366;2023-12-04T00:45:03;11.70;;;4.40;;
32427;SDS011;18882;50.952;4.366;2023-12-04T00:47:29;11.13;;;4.25;;
32427;SDS011;18882;50.952;4.366;2023-12-04T00:49:55;9.60;;;3.65;;
32427;SDS011;18882;50.952;4.366;2023-12-04T00:52:21;11.45;;;3.92;;
32427;SDS011;18882;50.952;4.366;2023-12-04T00:54:46;10.82;;;4.05;;
32427;SDS011;18882;50.952;4.366;2023-12-04T00:57:12;7.65;;;3.95;;
32427;SDS011;18882;50.952;4.366;2023-12-04T00:59:38;10.07;;;4.00;;
32427;SDS011;18882;50.952;4.366;2023-12-04T01:02:04;7.82;;;4.03;;
32427;SDS011;18882;50.952;4.366;2023-12-04T01:04:31;8.85;;;3.83;;
32427;SDS011;18882;50.952;4.366;2023-12-04T01:06:57;9.65;;;3.95;;
32427;SDS011;18882;50.952;4.366;2023-12-04T01:09:23;8.15;;;3.45;;
32427;SDS011;18882;50.952;4.366;2023-12-04T01:11:58;9.13;;;4.07;;
32427;SDS011;18882;50.952;4.366;2023-12-04T01:14:24;13.13;;;4.55;;
32427;SDS011;18882;50.952;4.366;2023-12-04T01:16:49;8.93;;;3.58;;
32427;SDS011;18882;50.952;4.366;2023-12-04T01:19:15;8.07;;;3.70;;
32427;SDS011;18882;50.952;4.366;2023-12-04T01:21:41;7.28;;;3.25;;
32427;SDS011;18882;50.952;4.366;2023-12-04T01:24:07;10.57;;;3.53;;
32427;SDS011;18882;50.952;4.366;2023-12-04T01:26:33;9.18;;;3.50;;
32427;SDS011;18882;50.952;4.366;2023-12-04T01:28:59;11.93;;;3.75;;
32427;SDS011;18882;50.952;4.366;2023-12-04T01:31:24;6.85;;;3.67;;
32427;SDS011;18882;50.952;4.366;2023-12-04T01:33:50;8.77;;;3.17;;
32427;SDS011;18882;50.952;4.366;2023-12-04T01:36:16;8.23;;;3.70;;
32427;SDS011;18882;50.952;4.366;2023-12-04T01:38:41;10.68;;;4.20;;
32427;SDS011;18882;50.952;4.366;2023-12-04T01:41:07;9.35;;;3.65;;
32427;SDS011;18882;50.952;4.366;2023-12-04T01:43:33;10.35;;;3.80;;
32427;SDS011;18882;50.952;4.366;2023-12-04T01:46:00;6.38;;;3.20;;
32427;SDS011;18882;50.952;4.366;2023-12-04T01:48:26;9.93;;;3.95;;
32427;SDS011;18882;50.952;4.366;2023-12-04T01:50:53;7.30;;;2.83;;
32427;SDS011;18882;50.952;4.366;2023-12-04T01:53:20;5.93;;;3.13;;
32427;SDS011;18882;50.952;4.366;2023-12-04T01:55:46;15.65;;;3.88;;
32427;SDS011;18882;50.952;4.366;2023-12-04T01:58:12;15.07;;;4.72;;
32427;SDS011;18882;50.952;4.366;2023-12-04T02:00:38;10.98;;;4.65;;
32427;SDS011;18882;50.952;4.366;2023-12-04T02:03:03;9.82;;;3.72;;
32427;SDS011;18882;50.952;4.366;2023-12-04T02:05:29;6.47;;;2.97;;
32427;SDS011;18882;50.952;4.366;2023-12-04T02:07:57;7.97;;;3.10;;
32427;SDS011;18882;50.952;4.366;2023-12-04T02:10:22;7.45;;;3.35;;
32427;SDS011;18882;50.952;4.366;2023-12-04T02:12:49;10.00;;;4.10;;
32427;SDS011;18882;50.952;4.366;2023-12-04T02:15:15;8.82;;;3.72;;
32427;SDS011;18882;50.952;4.366;2023-12-04T02:17:43;6.95;;;2.83;;
32427;SDS011;18882;50.952;4.366;2023-12-04T02:20:09;7.18;;;2.72;;
32427;SDS011;18882;50.952;4.366;2023-12-04T02:22:37;8.77;;;3.55;;
32427;SDS011;18882;50.952;4.366;2023-12-04T02:25:03;6.68;;;2.88;;
32427;SDS011;18882;50.952;4.366;2023-12-04T02:30:17;5.63;;;2.63;;
32427;SDS011;18882;50.952;4.366;2023-12-04T02:32:45;5.90;;;3.03;;
32427;SDS011;18882;50.952;4.366;2023-12-04T02:35:12;7.10;;;3.03;;
32427;SDS011;18882;50.952;4.366;2023-12-04T02:37:41;5.65;;;2.97;;
32427;SDS011;18882;50.952;4.366;2023-12-04T02:40:07;7.47;;;3.00;;
32427;SDS011;18882;50.952;4.366;2023-12-04T02:42:35;7.95;;;3.10;;
32427;SDS011;18882;50.952;4.366;2023-12-04T02:45:01;8.00;;;2.88;;
32427;SDS011;18882;50.952;4.366;2023-12-04T02:47:27;6.57;;;2.67;;
32427;SDS011;18882;50.952;4.366;2023-12-04T02:49:52;6.15;;;2.45;;
32427;SDS011;18882;50.952;4.366;2023-12-04T02:52:18;4.95;;;2.63;;
32427;SDS011;18882;50.952;4.366;2023-12-04T02:54:44;6.70;;;3.03;;
32427;SDS011;18882;50.952;4.366;2023-12-04T02:57:09;6.63;;;2.83;;
32427;SDS011;18882;50.952;4.366;2023-12-04T02:59:35;7.15;;;2.80;;
32427;SDS011;18882;50.952;4.366;2023-12-04T03:02:01;7.07;;;3.17;;
32427;SDS011;18882;50.952;4.366;2023-12-04T03:04:28;9.52;;;3.22;;
32427;SDS011;18882;50.952;4.366;2023-12-04T03:06:55;4.88;;;2.63;;
32427;SDS011;18882;50.952;4.366;2023-12-04T03:09:21;6.97;;;3.28;;
32427;SDS011;18882;50.952;4.366;2023-12-04T03:11:46;5.53;;;2.75;;
32427;SDS011;18882;50.952;4.366;2023-12-04T03:14:12;6.47;;;2.83;;
32427;SDS011;18882;50.952;4.366;2023-12-04T03:16:38;5.75;;;2.60;;
32427;SDS011;18882;50.952;4.366;2023-12-04T03:19:03;6.78;;;3.08;;
32427;SDS011;18882;50.952;4.366;2023-12-04T03:23:55;6.10;;;2.67;;
32427;SDS011;18882;50.952;4.366;2023-12-04T03:26:21;8.98;;;2.75;;
32427;SDS011;18882;50.952;4.366;2023-12-04T03:28:46;7.15;;;3.05;;
32427;SDS011;18882;50.952;4.366;2023-12-04T03:31:12;6.57;;;3.55;;
32427;SDS011;18882;50.952;4.366;2023-12-04T03:33:38;5.35;;;2.72;;
32427;SDS011;18882;50.952;4.366;2023-12-04T03:36:03;7.22;;;2.85;;
32427;SDS011;18882;50.952;4.366;2023-12-04T03:38:29;7.70;;;2.83;;
32427;SDS011;18882;50.952;4.366;2023-12-04T03:40:55;7.35;;;2.83;;
32427;SDS011;18882;50.952;4.366;2023-12-04T03:43:21;6.03;;;3.05;;
32427;SDS011;18882;50.952;4.366;2023-12-04T03:45:47;5.05;;;2.55;;
32427;SDS011;18882;50.952;4.366;2023-12-04T03:48:12;7.97;;;3.05;;
32427;SDS011;18882;50.952;4.366;2023-12-04T03:50:38;5.22;;;2.67;;
32427;SDS011;18882;50.952;4.366;2023-12-04T03:53:04;6.25;;;2.67;;
32427;SDS011;18882;50.952;4.366;2023-12-04T03:55:29;6.82;;;3.58;;
32427;SDS011;18882;50.952;4.366;2023-12-04T03:57:56;5.13;;;2.88;;
32427;SDS011;18882;50.952;4.366;2023-12-04T04:00:23;7.88;;;3.22;;
32427;SDS011;18882;50.952;4.366;2023-12-04T04:02:49;3.67;;;2.03;;
32427;SDS011;18882;50.952;4.366;2023-12-04T04:05:15;6.68;;;2.58;;
32427;SDS011;18882;50.952;4.366;2023-12-04T04:07:41;7.40;;;2.88;;
32427;SDS011;18882;50.952;4.366;2023-12-04T04:10:07;8.55;;;3.30;;
32427;SDS011;18882;50.952;4.366;2023-12-04T04:12:33;7.05;;;2.65;;
32427;SDS011;18882;50.952;4.366;2023-12-04T04:14:59;5.82;;;2.95;;
32427;SDS011;18882;50.952;4.366;2023-12-04T04:17:25;8.65;;;2.75;;
32427;SDS011;18882;50.952;4.366;2023-12-04T04:19:54;6.03;;;2.75;;
32427;SDS011;18882;50.952;4.366;2023-12-04T04:22:20;5.70;;;2.63;;
32427;SDS011;18882;50.952;4.366;2023-12-04T04:24:46;6.57;;;3.28;;
32427;SDS011;18882;50.952;4.366;2023-12-04T04:27:13;8.80;;;3.20;;
32427;SDS011;18882;50.952;4.366;2023-12-04T04:29:38;6.40;;;2.63;;
32427;SDS011;18882;50.952;4.366;2023-12-04T04:32:04;5.53;;;2.75;;
32427;SDS011;18882;50.952;4.366;2023-12-04T04:34:30;5.10;;;2.53;;
32427;SDS011;18882;50.952;4.366;2023-12-04T04:36:56;5.72;;;2.40;;
32427;SDS011;18882;50.952;4.366;2023-12-04T04:39:22;6.35;;;2.80;;
32427;SDS011;18882;50.952;4.366;2023-12-04T04:41:47;6.82;;;2.58;;
32427;SDS011;18882;50.952;4.366;2023-12-04T04:44:13;5.38;;;2.63;;
32427;SDS011;18882;50.952;4.366;2023-12-04T04:46:39;8.15;;;2.85;;
32427;SDS011;18882;50.952;4.366;2023-12-04T04:49:04;6.13;;;2.55;;
32427;SDS011;18882;50.952;4.366;2023-12-04T04:51:33;5.28;;;2.50;;
32427;SDS011;18882;50.952;4.366;2023-12-04T04:54:02;4.03;;;2.53;;
32427;SDS011;18882;50.952;4.366;2023-12-04T04:56:28;4.25;;;2.13;;
32427;SDS011;18882;50.952;4.366;2023-12-04T04:58:54;5.10;;;2.40;;
32427;SDS011;18882;50.952;4.366;2023-12-04T05:01:20;8.93;;;2.53;;
32427;SDS011;18882;50.952;4.366;2023-12-04T05:03:46;5.07;;;2.33;;
32427;SDS011;18882;50.952;4.366;2023-12-04T05:06:12;5.47;;;2.50;;
32427;SDS011;18882;50.952;4.366;2023-12-04T05:08:37;7.35;;;2.72;;
32427;SDS011;18882;50.952;4.366;2023-12-04T05:11:03;3.60;;;2.00;;
32427;SDS011;18882;50.952;4.366;2023-12-04T05:13:29;4.72;;;2.60;;
32427;SDS011;18882;50.952;4.366;2023-12-04T05:15:55;4.80;;;2.10;;
32427;SDS011;18882;50.952;4.366;2023-12-04T05:18:20;4.93;;;2.33;;
32427;SDS011;18882;50.952;4.366;2023-12-04T05:20:46;5.68;;;2.25;;
32427;SDS011;18882;50.952;4.366;2023-12-04T05:23:12;5.82;;;2.45;;
32427;SDS011;18882;50.952;4.366;2023-12-04T05:25:38;6.13;;;2.15;;
32427;SDS011;18882;50.952;4.366;2023-12-04T05:28:03;5.53;;;2.53;;
32427;SDS011;18882;50.952;4.366;2023-12-04T05:30:29;5.25;;;2.60;;
32427;SDS011;18882;50.952;4.366;2023-12-04T05:32:55;4.63;;;2.40;;
32427;SDS011;18882;50.952;4.366;2023-12-04T05:35:21;6.07;;;2.35;;
32427;SDS011;18882;50.952;4.366;2023-12-04T05:37:47;6.03;;;2.00;;
32427;SDS011;18882;50.952;4.366;2023-12-04T05:40:13;3.17;;;1.90;;
32427;SDS011;18882;50.952;4.366;2023-12-04T05:42:39;3.63;;;2.13;;
32427;SDS011;18882;50.952;4.366;2023-12-04T05:45:05;3.45;;;2.10;;
32427;SDS011;18882;50.952;4.366;2023-12-04T05:47:32;3.72;;;2.17;;
32427;SDS011;18882;50.952;4.366;2023-12-04T05:49:59;3.90;;;1.83;;
32427;SDS011;18882;50.952;4.366;2023-12-04T05:52:25;2.90;;;1.88;;
32427;SDS011;18882;50.952;4.366;2023-12-04T05:54:51;6.75;;;1.88;;
32427;SDS011;18882;50.952;4.366;2023-12-04T05:57:17;4.57;;;2.05;;
32427;SDS011;18882;50.952;4.366;2023-12-04T05:59:42;5.30;;;2.03;;
32427;SDS011;18882;50.952;4.366;2023-12-04T06:02:08;5.30;;;2.22;;
32427;SDS011;18882;50.952;4.366;2023-12-04T06:04:34;2.92;;;2.03;;
32427;SDS011;18882;50.952;4.366;2023-12-04T06:06:59;2.55;;;1.92;;
32427;SDS011;18882;50.952;4.366;2023-12-04T06:09:25;5.22;;;2.20;;
32427;SDS011;18882;50.952;4.366;2023-12-04T06:11:51;4.43;;;2.10;;
32427;SDS011;18882;50.952;4.366;2023-12-04T06:14:16;5.95;;;2.55;;
32427;SDS011;18882;50.952;4.366;2023-12-04T06:16:42;7.30;;;2.50;;
32427;SDS011;18882;50.952;4.366;2023-12-04T06:19:08;3.50;;;2.28;;
32427;SDS011;18882;50.952;4.366;2023-12-04T06:21:33;4.10;;;2.35;;
32427;SDS011;18882;50.952;4.366;2023-12-04T06:23:59;5.07;;;2.90;;
32427;SDS011;18882;50.952;4.366;2023-12-04T06:26:25;5.15;;;2.33;;
32427;SDS011;18882;50.952;4.366;2023-12-04T06:28:51;4.57;;;2.60;;
32427;SDS011;18882;50.952;4.366;2023-12-04T06:31:17;5.53;;;2.45;;
32427;SDS011;18882;50.952;4.366;2023-12-04T06:33:43;4.55;;;2.55;;
32427;SDS011;18882;50.952;4.366;2023-12-04T06:36:09;4.38;;;1.98;;
32427;SDS011;18882;50.952;4.366;2023-12-04T06:38:38;6.07;;;2.95;;
32427;SDS011;18882;50.952;4.366;2023-12-04T06:41:05;7.03;;;2.88;;
32427;SDS011;18882;50.952;4.366;2023-12-04T06:43:31;5.18;;;2.15;;
32427;SDS011;18882;50.952;4.366;2023-12-04T06:45:58;6.45;;;3.20;;
32427;SDS011;18882;50.952;4.366;2023-12-04T06:48:24;4.22;;;2.35;;
32427;SDS011;18882;50.952;4.366;2023-12-04T06:50:50;7.75;;;2.35;;
32427;SDS011;18882;50.952;4.366;2023-12-04T06:53:16;5.50;;;2.63;;
32427;SDS011;18882;50.952;4.366;2023-12-04T06:55:41;3.78;;;2.13;;
32427;SDS011;18882;50.952;4.366;2023-12-04T06:58:07;5.22;;;2.45;;
32427;SDS011;18882;50.952;4.366;2023-12-04T07:00:33;7.57;;;2.70;;
32427;SDS011;18882;50.952;4.366;2023-12-04T07:02:58;7.07;;;2.45;;
32427;SDS011;18882;50.952;4.366;2023-12-04T07:05:24;6.47;;;2.80;;
32427;SDS011;18882;50.952;4.366;2023-12-04T07:07:50;4.60;;;2.10;;
32427;SDS011;18882;50.952;4.366;2023-12-04T07:10:15;6.70;;;2.13;;
32427;SDS011;18882;50.952;4.366;2023-12-04T07:12:42;5.78;;;2.35;;
32427;SDS011;18882;50.952;4.366;2023-12-04T07:15:08;4.60;;;2.38;;
32427;SDS011;18882;50.952;4.366;2023-12-04T07:17:35;7.35;;;2.92;;
32427;SDS011;18882;50.952;4.366;2023-12-04T07:20:02;6.82;;;3.40;;
32427;SDS011;18882;50.952;4.366;2023-12-04T07:22:28;9.20;;;3.35;;
32427;SDS011;18882;50.952;4.366;2023-12-04T07:24:56;6.20;;;2.65;;
32427;SDS011;18882;50.952;4.366;2023-12-04T07:27:22;5.00;;;2.40;;
32427;SDS011;18882;50.952;4.366;2023-12-04T07:29:47;8.27;;;3.03;;
32427;SDS011;18882;50.952;4.366;2023-12-04T07:32:13;6.38;;;2.97;;
32427;SDS011;18882;50.952;4.366;2023-12-04T07:34:39;5.57;;;2.30;;
32427;SDS011;18882;50.952;4.366;2023-12-04T07:37:05;8.30;;;3.08;;
32427;SDS011;18882;50.952;4.366;2023-12-04T07:39:30;5.60;;;2.33;;
32427;SDS011;18882;50.952;4.366;2023-12-04T07:41:56;5.20;;;2.60;;
32427;SDS011;18882;50.952;4.366;2023-12-04T07:44:22;6.25;;;3.10;;
32427;SDS011;18882;50.952;4.366;2023-12-04T07:46:47;6.00;;;2.88;;
32427;SDS011;18882;50.952;4.366;2023-12-04T07:49:13;6.50;;;2.78;;
32427;SDS011;18882;50.952;4.366;2023-12-04T07:51:39;7.25;;;3.42;;
32427;SDS011;18882;50.952;4.366;2023-12-04T07:54:04;9.70;;;3.47;;
32427;SDS011;18882;50.952;4.366;2023-12-04T07:56:30;7.78;;;3.10;;
32427;SDS011;18882;50.952;4.366;2023-12-04T07:58:56;8.20;;;2.88;;
32427;SDS011;18882;50.952;4.366;2023-12-04T08:01:22;6.13;;;2.95;;
32427;SDS011;18882;50.952;4.366;2023-12-04T08:03:49;5.35;;;2.80;;
32427;SDS011;18882;50.952;4.366;2023-12-04T08:06:14;6.70;;;2.78;;
32427;SDS011;18882;50.952;4.366;2023-12-04T08:08:44;5.35;;;2.53;;
32427;SDS011;18882;50.952;4.366;2023-12-04T08:11:10;5.65;;;2.22;;
32427;SDS011;18882;50.952;4.366;2023-12-04T08:13:40;6.10;;;3.22;;
32427;SDS011;18882;50.952;4.366;2023-12-04T08:16:12;6.25;;;3.03;;
32427;SDS011;18882;50.952;4.366;2023-12-04T08:18:41;6.25;;;2.95;;
32427;SDS011;18882;50.952;4.366;2023-12-04T08:21:07;6.85;;;3.20;;
32427;SDS011;18882;50.952;4.366;2023-12-04T08:23:33;5.95;;;2.78;;
32427;SDS011;18882;50.952;4.366;2023-12-04T08:25:58;5.45;;;2.63;;
32427;SDS011;18882;50.952;4.366;2023-12-04T08:28:24;5.70;;;2.78;;
32427;SDS011;18882;50.952;4.366;2023-12-04T08:30:50;9.23;;;3.47;;
32427;SDS011;18882;50.952;4.366;2023-12-04T08:33:15;9.80;;;4.22;;
32427;SDS011;18882;50.952;4.366;2023-12-04T08:35:41;7.15;;;3.08;;
32427;SDS011;18882;50.952;4.366;2023-12-04T08:38:07;7.13;;;3.17;;
32427;SDS011;18882;50.952;4.366;2023-12-04T08:40:32;5.25;;;2.72;;
32427;SDS011;18882;50.952;4.366;2023-12-04T08:42:58;7.13;;;2.85;;
32427;SDS011;18882;50.952;4.366;2023-12-04T08:45:24;4.95;;;3.20;;
32427;SDS011;18882;50.952;4.366;2023-12-04T08:47:49;5.55;;;3.28;;
32427;SDS011;18882;50.952;4.366;2023-12-04T08:50:15;5.13;;;2.80;;
32427;SDS011;18882;50.952;4.366;2023-12-04T08:52:41;5.32;;;3.08;;
32427;SDS011;18882;50.952;4.366;2023-12-04T08:55:07;8.52;;;3.40;;
32427;SDS011;18882;50.952;4.366;2023-12-04T08:57:33;4.32;;;3.05;;
32427;SDS011;18882;50.952;4.366;2023-12-04T08:59:59;6.10;;;3.00;;
32427;SDS011;18882;50.952;4.366;2023-12-04T09:02:25;7.78;;;3.15;;
32427;SDS011;18882;50.952;4.366;2023-12-04T09:04:50;7.75;;;3.10;;
32427;SDS011;18882;50.952;4.366;2023-12-04T09:07:16;7.00;;;3.00;;
32427;SDS011;18882;50.952;4.366;2023-12-04T09:09:42;8.65;;;2.88;;
32427;SDS011;18882;50.952;4.366;2023-12-04T09:12:09;10.05;;;3.03;;
32427;SDS011;18882;50.952;4.366;2023-12-04T09:14:35;6.32;;;3.05;;
32427;SDS011;18882;50.952;4.366;2023-12-04T09:17:01;6.28;;;3.10;;
32427;SDS011;18882;50.952;4.366;2023-12-04T09:19:28;7.93;;;3.20;;
32427;SDS011;18882;50.952;4.366;2023-12-04T09:21:54;5.35;;;2.55;;
32427;SDS011;18882;50.952;4.366;2023-12-04T09:24:21;5.32;;;2.92;;
32427;SDS011;18882;50.952;4.366;2023-12-04T09:26:48;8.32;;;3.90;;
32427;SDS011;18882;50.952;4.366;2023-12-04T09:29:14;5.75;;;3.00;;
32427;SDS011;18882;50.952;4.366;2023-12-04T09:31:41;8.05;;;3.58;;
32427;SDS011;18882;50.952;4.366;2023-12-04T09:34:07;5.32;;;3.47;;
32427;SDS011;18882;50.952;4.366;2023-12-04T09:36:33;5.25;;;3.03;;
32427;SDS011;18882;50.952;4.366;2023-12-04T09:38:59;5.60;;;2.65;;
32427;SDS011;18882;50.952;4.366;2023-12-04T09:41:25;6.85;;;3.15;;
32427;SDS011;18882;50.952;4.366;2023-12-04T09:43:51;6.57;;;2.70;;
32427;SDS011;18882;50.952;4.366;2023-12-04T09:46:17;6.68;;;3.40;;
32427;SDS011;18882;50.952;4.366;2023-12-04T09:48:44;7.03;;;3.00;;
32427;SDS011;18882;50.952;4.366;2023-12-04T09:51:10;10.10;;;3.70;;
32427;SDS011;18882;50.952;4.366;2023-12-04T09:53:36;7.88;;;3.30;;
32427;SDS011;18882;50.952;4.366;2023-12-04T09:56:02;9.38;;;3.28;;
32427;SDS011;18882;50.952;4.366;2023-12-04T09:58:29;4.43;;;3.22;;
32427;SDS011;18882;50.952;4.366;2023-12-04T10:00:57;8.82;;;3.65;;
32427;SDS011;18882;50.952;4.366;2023-12-04T10:03:26;5.97;;;3.35;;
32427;SDS011;18882;50.952;4.366;2023-12-04T10:05:53;6.47;;;2.97;;
32427;SDS011;18882;50.952;4.366;2023-12-04T10:08:19;8.13;;;3.40;;
32427;SDS011;18882;50.952;4.366;2023-12-04T10:10:46;7.97;;;3.85;;
32427;SDS011;18882;50.952;4.366;2023-12-04T10:13:12;8.02;;;3.20;;
32427;SDS011;18882;50.952;4.366;2023-12-04T10:15:47;5.25;;;3.25;;
32427;SDS011;18882;50.952;4.366;2023-12-04T10:18:26;7.22;;;2.90;;
32427;SDS011;18882;50.952;4.366;2023-12-04T10:20:55;7.28;;;3.47;;
32427;SDS011;18882;50.952;4.366;2023-12-04T10:23:21;6.13;;;3.17;;
32427;SDS011;18882;50.952;4.366;2023-12-04T10:25:48;6.22;;;2.97;;
32427;SDS011;18882;50.952;4.366;2023-12-04T10:28:16;7.25;;;3.85;;
32427;SDS011;18882;50.952;4.366;2023-12-04T10:30:42;5.95;;;3.40;;
32427;SDS011;18882;50.952;4.366;2023-12-04T10:33:08;7.65;;;3.67;;
32427;SDS011;18882;50.952;4.366;2023-12-04T10:35:35;6.68;;;3.60;;
32427;SDS011;18882;50.952;4.366;2023-12-04T10:38:02;10.80;;;4.72;;
32427;SDS011;18882;50.952;4.366;2023-12-04T10:40:29;11.35;;;5.85;;
32427;SDS011;18882;50.952;4.366;2023-12-04T10:45:36;13.50;;;4.47;;
32427;SDS011;18882;50.952;4.366;2023-12-04T10:48:03;6.45;;;3.03;;
32427;SDS011;18882;50.952;4.366;2023-12-04T10:50:35;8.60;;;4.22;;
32427;SDS011;18882;50.952;4.366;2023-12-04T10:53:05;11.15;;;4.07;;
32427;SDS011;18882;50.952;4.366;2023-12-04T10:55:32;10.77;;;4.20;;
32427;SDS011;18882;50.952;4.366;2023-12-04T10:58:02;9.18;;;4.60;;
32427;SDS011;18882;50.952;4.366;2023-12-04T11:00:32;10.07;;;4.55;;
32427;SDS011;18882;50.952;4.366;2023-12-04T11:03:02;8.63;;;4.28;;
32427;SDS011;18882;50.952;4.366;2023-12-04T11:05:37;15.30;;;6.15;;
32427;SDS011;18882;50.952;4.366;2023-12-04T11:08:05;8.02;;;4.15;;
32427;SDS011;18882;50.952;4.366;2023-12-04T11:10:32;8.15;;;3.72;;
32427;SDS011;18882;50.952;4.366;2023-12-04T11:13:01;10.35;;;4.40;;
32427;SDS011;18882;50.952;4.366;2023-12-04T11:15:31;8.45;;;4.00;;
32427;SDS011;18882;50.952;4.366;2023-12-04T11:18:04;11.77;;;5.47;;
32427;SDS011;18882;50.952;4.366;2023-12-04T11:20:31;11.88;;;5.22;;
32427;SDS011;18882;50.952;4.366;2023-12-04T11:23:01;10.43;;;5.75;;
32427;SDS011;18882;50.952;4.366;2023-12-04T11:25:31;18.40;;;7.15;;
32427;SDS011;18882;50.952;4.366;2023-12-04T11:27:59;13.98;;;5.22;;
32427;SDS011;18882;50.952;4.366;2023-12-04T11:30:26;11.38;;;5.78;;
32427;SDS011;18882;50.952;4.366;2023-12-04T11:32:54;17.42;;;6.22;;
32427;SDS011;18882;50.952;4.366;2023-12-04T11:35:25;7.78;;;4.38;;
32427;SDS011;18882;50.952;4.366;2023-12-04T11:37:51;7.57;;;4.20;;
32427;SDS011;18882;50.952;4.366;2023-12-04T11:40:17;9.07;;;4.63;;
32427;SDS011;18882;50.952;4.366;2023-12-04T11:42:43;9.80;;;4.47;;
32427;SDS011;18882;50.952;4.366;2023-12-04T11:45:09;8.55;;;4.28;;
32427;SDS011;18882;50.952;4.366;2023-12-04T11:47:54;8.73;;;4.35;;
32427;SDS011;18882;50.952;4.366;2023-12-04T11:50:21;18.45;;;5.95;;
32427;SDS011;18882;50.952;4.366;2023-12-04T11:52:49;10.55;;;4.55;;
32427;SDS011;18882;50.952;4.366;2023-12-04T11:55:18;14.18;;;5.38;;
32427;SDS011;18882;50.952;4.366;2023-12-04T11:57:46;9.98;;;5.75;;
32427;SDS011;18882;50.952;4.366;2023-12-04T12:03:01;11.15;;;4.93;;
32427;SDS011;18882;50.952;4.366;2023-12-04T12:05:28;10.18;;;4.10;;
32427;SDS011;18882;50.952;4.366;2023-12-04T12:07:55;9.23;;;4.20;;
32427;SDS011;18882;50.952;4.366;2023-12-04T12:10:24;14.60;;;4.53;;
32427;SDS011;18882;50.952;4.366;2023-12-04T12:12:50;11.95;;;4.75;;
32427;SDS011;18882;50.952;4.366;2023-12-04T12:15:17;9.27;;;3.92;;
32427;SDS011;18882;50.952;4.366;2023-12-04T12:17:42;10.15;;;4.45;;
32427;SDS011;18882;50.952;4.366;2023-12-04T12:20:08;11.18;;;3.97;;
32427;SDS011;18882;50.952;4.366;2023-12-04T12:22:36;9.55;;;4.18;;
32427;SDS011;18882;50.952;4.366;2023-12-04T12:25:06;9.85;;;4.40;;
32427;SDS011;18882;50.952;4.366;2023-12-04T12:27:33;11.25;;;4.03;;
32427;SDS011;18882;50.952;4.366;2023-12-04T12:29:59;10.95;;;3.90;;
32427;SDS011;18882;50.952;4.366;2023-12-04T12:32:25;9.75;;;4.07;;
32427;SDS011;18882;50.952;4.366;2023-12-04T12:34:52;10.95;;;4.60;;
32427;SDS011;18882;50.952;4.366;2023-12-04T12:37:18;8.68;;;4.10;;
32427;SDS011;18882;50.952;4.366;2023-12-04T12:39:44;8.88;;;4.13;;
32427;SDS011;18882;50.952;4.366;2023-12-04T12:42:10;8.07;;;3.92;;
32427;SDS011;18882;50.952;4.366;2023-12-04T12:44:39;11.13;;;4.78;;
32427;SDS011;18882;50.952;4.366;2023-12-04T12:47:06;7.50;;;3.92;;
32427;SDS011;18882;50.952;4.366;2023-12-04T12:49:32;8.95;;;4.53;;
32427;SDS011;18882;50.952;4.366;2023-12-04T12:51:59;11.65;;;5.45;;
32427;SDS011;18882;50.952;4.366;2023-12-04T12:54:25;17.23;;;7.20;;
32427;SDS011;18882;50.952;4.366;2023-12-04T12:56:51;20.48;;;8.10;;
32427;SDS011;18882;50.952;4.366;2023-12-04T12:59:16;27.58;;;9.43;;
32427;SDS011;18882;50.952;4.366;2023-12-04T13:01:47;27.27;;;9.73;;
32427;SDS011;18882;50.952;4.366;2023-12-04T13:04:13;12.07;;;5.05;;
32427;SDS011;18882;50.952;4.366;2023-12-04T13:06:42;12.23;;;5.25;;
32427;SDS011;18882;50.952;4.366;2023-12-04T13:09:08;10.57;;;4.82;;
32427;SDS011;18882;50.952;4.366;2023-12-04T13:11:33;17.52;;;5.78;;
32427;SDS011;18882;50.952;4.366;2023-12-04T13:13:59;10.35;;;4.93;;
32427;SDS011;18882;50.952;4.366;2023-12-04T13:16:26;7.10;;;4.72;;
32427;SDS011;18882;50.952;4.366;2023-12-04T13:18:52;11.20;;;5.35;;
32427;SDS011;18882;50.952;4.366;2023-12-04T13:21:17;13.57;;;6.63;;
32427;SDS011;18882;50.952;4.366;2023-12-04T13:23:43;7.28;;;4.30;;
32427;SDS011;18882;50.952;4.366;2023-12-04T13:26:09;11.77;;;4.68;;
32427;SDS011;18882;50.952;4.366;2023-12-04T13:28:36;10.05;;;4.05;;
32427;SDS011;18882;50.952;4.366;2023-12-04T13:31:03;8.95;;;3.92;;
32427;SDS011;18882;50.952;4.366;2023-12-04T13:33:29;9.07;;;4.63;;
32427;SDS011;18882;50.952;4.366;2023-12-04T13:35:56;8.77;;;3.58;;
32427;SDS011;18882;50.952;4.366;2023-12-04T13:38:22;7.05;;;3.75;;
32427;SDS011;18882;50.952;4.366;2023-12-04T13:40:48;8.00;;;3.25;;
32427;SDS011;18882;50.952;4.366;2023-12-04T13:43:27;8.07;;;2.85;;
32427;SDS011;18882;50.952;4.366;2023-12-04T13:46:11;5.85;;;2.95;;
32427;SDS011;18882;50.952;4.366;2023-12-04T13:48:37;6.70;;;2.83;;
32427;SDS011;18882;50.952;4.366;2023-12-04T13:51:06;4.32;;;3.05;;
32427;SDS011;18882;50.952;4.366;2023-12-04T13:53:35;9.85;;;3.15;;
32427;SDS011;18882;50.952;4.366;2023-12-04T13:56:07;7.57;;;2.85;;
32427;SDS011;18882;50.952;4.366;2023-12-04T13:58:45;8.15;;;2.85;;
32427;SDS011;18882;50.952;4.366;2023-12-04T14:01:21;8.43;;;3.78;;
32427;SDS011;18882;50.952;4.366;2023-12-04T14:03:53;9.50;;;4.60;;
32427;SDS011;18882;50.952;4.366;2023-12-04T14:06:21;9.13;;;4.07;;
32427;SDS011;18882;50.952;4.366;2023-12-04T14:08:47;6.55;;;4.15;;
32427;SDS011;18882;50.952;4.366;2023-12-04T14:11:13;9.48;;;3.92;;
32427;SDS011;18882;50.952;4.366;2023-12-04T14:13:39;7.03;;;3.35;;
32427;SDS011;18882;50.952;4.366;2023-12-04T14:16:05;7.15;;;4.03;;
32427;SDS011;18882;50.952;4.366;2023-12-04T14:18:31;5.25;;;3.03;;
32427;SDS011;18882;50.952;4.366;2023-12-04T14:20:57;6.97;;;3.15;;
32427;SDS011;18882;50.952;4.366;2023-12-04T14:23:23;8.98;;;3.20;;
32427;SDS011;18882;50.952;4.366;2023-12-04T14:25:49;5.07;;;3.35;;
32427;SDS011;18882;50.952;4.366;2023-12-04T14:28:15;9.40;;;4.22;;
32427;SDS011;18882;50.952;4.366;2023-12-04T14:30:41;14.10;;;5.40;;
32427;SDS011;18882;50.952;4.366;2023-12-04T14:33:07;11.02;;;4.07;;
32427;SDS011;18882;50.952;4.366;2023-12-04T14:35:34;8.98;;;4.10;;
32427;SDS011;18882;50.952;4.366;2023-12-04T14:38:01;6.28;;;3.47;;
32427;SDS011;18882;50.952;4.366;2023-12-04T14:40:28;9.57;;;4.70;;
32427;SDS011;18882;50.952;4.366;2023-12-04T14:42:53;9.65;;;4.25;;
32427;SDS011;18882;50.952;4.366;2023-12-04T14:45:19;6.45;;;3.35;;
32427;SDS011;18882;50.952;4.366;2023-12-04T14:47:45;7.28;;;4.00;;
32427;SDS011;18882;50.952;4.366;2023-12-04T14:50:13;9.02;;;3.38;;
32427;SDS011;18882;50.952;4.366;2023-12-04T14:52:39;6.75;;;3.58;;